ADDS METAR Data INFO
IDs: Format: Raw Decoded Include TAF

Data at: 0026 UTC 23 Oct 2017

KGSO 222354Z 00000KT 10SM BKN050 BKN250 20/14 A3027 RMK AO2 SLP246 T02000144 10244 20200 53004
KGSO 222254Z 12003KT 10SM BKN050 BKN250 22/13 A3026 RMK AO2 SLP243 T02170133
KGSO 222154Z 17005KT 10SM SCT050 OVC250 23/13 A3026 RMK AO2 SLP241 T02280133
KGSO 222054Z 15008KT 10SM SCT050 BKN250 23/13 A3026 RMK AO2 SLP240 T02330133 56015
KGSO 221954Z 15005KT 10SM SCT045 BKN250 24/13 A3027 RMK AO2 SLP243 T02390133
KGSO 221854Z 16006KT 10SM SCT045 BKN250 24/14 A3028 RMK AO2 SLP248 T02390139
KGSO 221754Z 18007KT 10SM FEW040 FEW250 24/12 A3031 RMK AO2 SLP256 T02390122 10239 20100 58020
KGSO 221654Z 12008KT 10SM SCT035 SCT250 23/13 A3034 RMK AO2 SLP265 T02330133
KGSO 221554Z 18006KT 10SM SCT025 SCT250 22/14 A3036 RMK AO2 SLP274 T02170144
KGSO 221454Z 17003KT 10SM SCT250 20/16 A3037 RMK AO2 SLP277 T02000156 50006
KGSO 221354Z 00000KT 10SM SCT250 18/15 A3038 RMK AO2 SLP280 T01830150
KGSO 221254Z 00000KT 10SM BKN250 14/12 A3036 RMK AO2 SLP276 T01440122
KGSO 221154Z 00000KT 10SM BKN250 10/10 A3035 RMK AO2 SLP274 T01000100 10139 20100 53009
KGSO 221054Z 00000KT 10SM SCT250 12/11 A3034 RMK AO2 SLP268 T01170106
KGSO 220954Z 00000KT 10SM SCT250 13/11 A3033 RMK AO2 SLP265 T01280111
KGSO 220854Z 00000KT 10SM FEW250 14/12 A3032 RMK AO2 SLP261 T01390117 55001
KGSO 220754Z 00000KT 10SM SCT250 12/11 A3032 RMK AO2 SLP260 T01220111
KGSO 220654Z 00000KT 10SM SCT250 14/12 A3032 RMK AO2 SLP262 T01390117
KGSO 220554Z 00000KT 10SM FEW250 14/12 A3032 RMK AO2 SLP263 T01390117 10189 20133 56005
KGSO 220454Z 00000KT 10SM FEW250 15/12 A3033 RMK AO2 SLP262 T01500122 402500089
KGSO 220354Z 00000KT 10SM BKN250 15/12 A3034 RMK AO2 SLP267 T01500122
KGSO 220254Z 00000KT 10SM BKN250 16/13 A3034 RMK AO2 SLP268 T01560128 53003
KGSO 220154Z 00000KT 10SM OVC250 17/13 A3033 RMK AO2 SLP266 T01670133
KGSO 220054Z 00000KT 10SM OVC250 17/13 A3033 RMK AO2 SLP267 T01720133
KGSO 212354Z 00000KT 10SM BKN250 19/13 A3033 RMK AO2 SLP267 T01890133 10250 20189 53008
KGSO 212254Z 07003KT 10SM FEW220 OVC250 21/11 A3032 RMK AO2 SLP262 T02110111
KGSO 212154Z 17004KT 10SM FEW220 OVC250 22/11 A3031 RMK AO2 SLP258 T02220111
KGSO 212054Z 13006KT 10SM BKN250 23/11 A3031 RMK AO2 SLP257 T02330106 55003
KGSO 211954Z 17003KT 10SM BKN250 24/09 A3030 RMK AO2 SLP254 T02390094
KGSO 211854Z 15005KT 10SM BKN250 24/11 A3030 RMK AO2 SLP255 T02390106
KGSO 211754Z 09005KT 10SM BKN250 24/11 A3031 RMK AO2 SLP259 T02390111 10239 20100 58013
KGSO 211654Z 07004KT 10SM BKN250 23/11 A3033 RMK AO2 SLP265 T02330111
KGSO 211554Z VRB05KT 10SM BKN250 22/11 A3035 RMK AO2 SLP270 T02220111
KGSO 211454Z 05003KT 10SM BKN250 20/11 A3035 RMK AO2 SLP273 T02000111 51012
KGSO 211354Z 04004KT 10SM SCT250 17/12 A3035 RMK AO2 SLP272 T01670117
KGSO 211254Z COR 06003KT 10SM FEW250 14/11 A3034 RMK AO2 SLP269 T01390111